Time;durP1;ratioP1;P1;durP2;ratioP2;P2;SDS_P1;SDS_P2;PMS_P1;PMS_P2;Temp;Humidity;BMP_temperature;BMP_pressure;BME280_temperature;BME280_humidity;BME280_pressure;Samples;Min_cycle;Max_cycle;Signal;HPM_P1;HPM_P2
2023/08/22 00:01:10;;;;;;;17.10;12.10;;;;;;;23.27;78.32;100728.53;5085740;27;20538;-67
2023/08/22 00:03:35;;;;;;;18.52;12.20;;;;;;;23.34;78.28;100734.28;5083197;28;20685;-64
2023/08/22 00:06:00;;;;;;;16.25;12.68;;;;;;;23.33;78.07;100741.56;5101477;27;20081;-65
2023/08/22 00:08:26;;;;;;;19.02;12.63;;;;;;;23.31;78.41;100738.38;5101568;27;20020;-67
2023/08/22 00:10:51;;;;;;;18.45;13.15;;;;;;;23.21;78.81;100722.47;5109650;27;20034;-68
2023/08/22 00:13:17;;;;;;;14.75;12.18;;;;;;;23.29;78.80;100739.78;5105150;27;20566;-65
2023/08/22 00:15:42;;;;;;;14.60;12.93;;;;;;;23.27;78.92;100736.59;5100715;28;20019;-65
2023/08/22 00:18:08;;;;;;;14.88;11.80;;;;;;;23.25;78.90;100731.53;5103718;28;20485;-68
2023/08/22 00:20:35;;;;;;;16.88;12.50;;;;;;;23.26;79.13;100737.69;5106010;28;20436;-69
2023/08/22 00:23:01;;;;;;;18.27;12.95;;;;;;;23.18;79.22;100720.41;5100362;28;20076;-69
2023/08/22 00:25:26;;;;;;;15.70;13.15;;;;;;;23.19;79.05;100713.94;5090032;28;20148;-69
2023/08/22 00:27:52;;;;;;;15.05;12.32;;;;;;;23.20;79.39;100720.09;5106391;28;20028;-69
2023/08/22 00:30:17;;;;;;;14.85;12.23;;;;;;;23.17;79.19;100720.69;5105412;28;20027;-67
2023/08/22 00:32:42;;;;;;;14.77;12.65;;;;;;;23.09;79.52;100711.47;5100299;28;20023;-68
2023/08/22 00:35:08;;;;;;;15.73;12.90;;;;;;;23.14;79.79;100716.72;5104832;28;20022;-68
2023/08/22 00:37:33;;;;;;;17.83;13.30;;;;;;;23.07;80.19;100717.13;5106479;28;20493;-68
2023/08/22 00:40:00;;;;;;;19.10;14.10;;;;;;;23.02;81.66;100713.78;5109228;28;20027;-68
2023/08/22 00:42:25;;;;;;;17.40;13.50;;;;;;;23.00;81.42;100727.50;5091172;28;20480;-69
2023/08/22 00:44:53;;;;;;;17.42;14.07;;;;;;;22.98;81.21;100727.00;5101472;28;20027;-68
2023/08/22 00:47:19;;;;;;;16.83;14.23;;;;;;;22.94;81.62;100720.63;5104736;28;20024;-68
2023/08/22 00:49:45;;;;;;;17.48;14.05;;;;;;;22.91;81.72;100713.97;5102599;28;20019;-65
2023/08/22 00:52:11;;;;;;;18.60;13.82;;;;;;;22.83;81.22;100703.13;5104548;28;20112;-68
2023/08/22 00:54:36;;;;;;;15.90;13.10;;;;;;;22.85;81.45;100706.28;5106534;28;20028;-68
2023/08/22 00:57:03;;;;;;;17.92;13.57;;;;;;;22.87;81.47;100704.91;5104265;28;20085;-68
2023/08/22 00:59:29;;;;;;;16.70;13.18;;;;;;;22.84;81.59;100700.13;5104243;28;20023;-68
2023/08/22 01:01:55;;;;;;;17.70;14.07;;;;;;;22.84;81.49;100702.00;5103838;28;20042;-68
2023/08/22 01:04:21;;;;;;;18.33;14.27;;;;;;;22.84;81.46;100708.19;5106595;28;20439;-68
2023/08/22 01:07:07;;;;;;;17.63;13.43;;;;;;;22.85;81.66;100707.09;5103007;28;20076;-68
2023/08/22 01:09:40;;;;;;;16.77;13.85;;;;;;;22.66;81.70;100682.25;5101461;28;20118;-68
2023/08/22 01:12:08;;;;;;;19.38;14.38;;;;;;;22.80;81.66;100703.72;5101347;28;20099;-68
2023/08/22 01:14:38;;;;;;;20.58;14.52;;;;;;;22.75;81.85;100695.75;5102551;28;20032;-68
2023/08/22 01:17:06;;;;;;;17.40;13.00;;;;;;;22.66;81.81;100691.09;5102854;28;20045;-68
2023/08/22 01:19:32;;;;;;;16.17;13.65;;;;;;;22.70;81.81;100708.19;5103698;28;20563;-65
2023/08/22 01:21:57;;;;;;;15.98;13.85;;;;;;;22.65;82.26;100705.63;5103671;28;20176;-68
2023/08/22 01:24:23;;;;;;;16.85;13.57;;;;;;;22.61;82.40;100703.81;5103128;28;20385;-68
2023/08/22 01:26:48;;;;;;;18.77;14.68;;;;;;;22.49;82.14;100689.00;5106175;28;20033;-68
2023/08/22 01:29:26;;;;;;;23.13;14.35;;;;;;;22.49;82.23;100688.22;5105125;27;20026;-68
2023/08/22 01:32:13;;;;;;;18.08;13.85;;;;;;;22.57;82.59;100706.28;5107184;27;20019;-68
2023/08/22 01:34:40;;;;;;;16.10;13.68;;;;;;;22.44;82.73;100685.63;5102765;27;20318;-67
2023/08/22 01:37:08;;;;;;;19.70;13.90;;;;;;;22.45;82.75;100693.34;5103147;27;20484;-69
2023/08/22 01:39:35;;;;;;;18.83;14.23;;;;;;;22.48;82.90;100700.00;5106259;27;20028;-69
2023/08/22 01:42:01;;;;;;;16.00;12.90;;;;;;;22.46;82.85;100694.97;5115137;27;20038;-68
2023/08/22 01:44:28;;;;;;;16.85;13.93;;;;;;;22.34;83.67;100681.25;5108454;27;20110;-69
2023/08/22 01:46:54;;;;;;;22.85;13.65;;;;;;;22.38;83.67;100681.44;5110382;27;20031;-69
2023/08/22 01:49:20;;;;;;;20.20;13.13;;;;;;;22.38;83.85;100682.22;5113532;27;20098;-69
2023/08/22 01:51:45;;;;;;;16.35;13.52;;;;;;;22.29;83.86;100667.91;5109869;27;20035;-68
2023/08/22 01:54:10;;;;;;;16.58;13.13;;;;;;;22.34;83.77;100683.94;5106242;27;20023;-68
2023/08/22 01:56:36;;;;;;;20.73;13.63;;;;;;;22.32;84.13;100677.28;5088433;27;20039;-69
2023/08/22 01:59:01;;;;;;;16.08;13.88;;;;;;;22.03;84.00;100641.53;5108683;27;20028;-69
2023/08/22 02:01:27;;;;;;;16.67;13.55;;;;;;;22.31;83.98;100695.22;5107406;27;20084;-69
2023/08/22 02:03:52;;;;;;;20.40;13.43;;;;;;;22.26;84.27;100688.06;5105177;27;20024;-69
2023/08/22 02:06:17;;;;;;;17.08;13.50;;;;;;;22.14;84.00;100676.22;5104741;27;20032;-68
2023/08/22 02:08:43;;;;;;;17.38;13.65;;;;;;;22.20;84.51;100683.09;5111480;27;20031;-68
2023/08/22 02:11:08;;;;;;;23.50;14.50;;;;;;;22.21;84.54;100695.44;5105075;27;20027;-69
2023/08/22 02:13:34;;;;;;;18.55;14.15;;;;;;;22.14;85.33;100684.25;5091091;27;20541;-67
2023/08/22 02:16:00;;;;;;;16.95;14.30;;;;;;;21.89;85.27;100654.13;5106394;27;20035;-69
2023/08/22 02:18:26;;;;;;;15.02;13.38;;;;;;;22.08;86.28;100686.25;5110363;27;20376;-69
2023/08/22 02:20:53;;;;;;;17.25;13.85;;;;;;;22.01;87.13;100686.63;5087768;27;20069;-69
2023/08/22 02:23:18;;;;;;;25.15;14.18;;;;;;;21.91;87.91;100697.53;5109589;27;20034;-66
2023/08/22 02:25:46;;;;;;;20.88;14.48;;;;;;;21.87;88.95;100691.16;5106236;27;20032;-68
2023/08/22 02:28:11;;;;;;;16.45;14.32;;;;;;;21.68;88.55;100667.06;5107157;27;20087;-68
2023/08/22 02:30:37;;;;;;;19.25;14.40;;;;;;;21.83;89.15;100690.13;5108245;27;20105;-69
2023/08/22 02:33:03;;;;;;;18.80;14.13;;;;;;;21.84;89.21;100697.09;5102427;27;20024;-69
2023/08/22 02:35:28;;;;;;;19.13;14.73;;;;;;;21.83;88.42;100690.91;5104867;27;20106;-69
2023/08/22 02:37:53;;;;;;;19.85;15.07;;;;;;;21.82;88.24;100691.22;5106299;27;20039;-68
2023/08/22 02:40:19;;;;;;;20.10;14.15;;;;;;;21.70;88.15;100677.50;5089615;27;20028;-69
2023/08/22 02:42:44;;;;;;;17.45;14.38;;;;;;;21.69;88.00;100671.31;5087350;27;20067;-66
2023/08/22 02:45:10;;;;;;;18.30;13.75;;;;;;;21.91;87.68;100691.34;5101169;27;20058;-68
2023/08/22 02:47:35;;;;;;;19.48;13.95;;;;;;;21.87;87.41;100683.88;5106336;27;20031;-69
2023/08/22 02:50:01;;;;;;;20.65;14.05;;;;;;;21.68;87.52;100656.34;5102458;27;20135;-69
2023/08/22 02:52:26;;;;;;;28.90;14.82;;;;;;;21.92;88.11;100695.63;5104957;27;20042;-68
2023/08/22 02:54:52;;;;;;;28.35;15.75;;;;;;;21.92;88.12;100699.09;5102987;27;20023;-69
2023/08/22 02:57:18;;;;;;;27.02;14.55;;;;;;;21.86;87.66;100693.03;5099812;27;20027;-69
2023/08/22 02:59:43;;;;;;;21.80;14.40;;;;;;;21.82;87.87;100693.91;5101920;27;20492;-68
2023/08/22 03:02:09;;;;;;;28.60;13.55;;;;;;;21.89;88.23;100705.06;5106710;27;20034;-66
2023/08/22 03:04:37;;;;;;;25.33;14.50;;;;;;;21.91;87.87;100704.75;5102813;27;20017;-69
2023/08/22 03:07:04;;;;;;;22.73;14.27;;;;;;;21.88;88.00;100706.13;5101329;27;20015;-68
2023/08/22 03:09:29;;;;;;;19.77;14.23;;;;;;;21.75;89.27;100696.97;5102781;27;20030;-69
2023/08/22 03:11:55;;;;;;;21.48;15.20;;;;;;;21.50;91.00;100683.94;5104656;27;20372;-69
2023/08/22 03:14:20;;;;;;;20.20;14.95;;;;;;;21.59;91.16;100717.84;5109460;27;20023;-68
2023/08/22 03:16:46;;;;;;;20.13;14.43;;;;;;;21.56;90.24;100715.75;5085882;28;20039;-68
2023/08/22 03:19:11;;;;;;;22.70;16.10;;;;;;;21.45;90.25;100706.25;5085695;27;20031;-69
2023/08/22 03:21:36;;;;;;;21.42;14.95;;;;;;;21.35;90.83;100707.16;5106245;27;20287;-66
2023/08/22 03:24:02;;;;;;;19.17;14.60;;;;;;;21.33;91.88;100728.06;5108494;27;20102;-69
2023/08/22 03:26:27;;;;;;;19.30;14.10;;;;;;;21.18;92.55;100722.94;5102324;27;20027;-69
2023/08/22 03:28:53;;;;;;;19.08;14.20;;;;;;;21.20;93.15;100731.50;5103615;27;20373;-66
2023/08/22 03:31:18;;;;;;;20.15;14.00;;;;;;;21.02;94.58;100730.34;5105841;27;20392;-69
2023/08/22 03:33:43;;;;;;;19.42;15.45;;;;;;;21.08;94.58;100744.50;5099922;27;20034;-65
2023/08/22 03:36:09;;;;;;;17.92;14.10;;;;;;;21.03;94.19;100745.34;5104848;27;20031;-69
2023/08/22 03:38:34;;;;;;;20.40;15.07;;;;;;;20.87;96.28;100736.69;5105360;27;20042;-68
2023/08/22 03:41:00;;;;;;;25.05;15.27;;;;;;;20.79;96.68;100731.97;5103549;27;20023;-68
2023/08/22 03:43:26;;;;;;;20.77;14.88;;;;;;;20.85;95.65;100740.75;5108987;27;20046;-69
2023/08/22 03:45:51;;;;;;;17.48;14.95;;;;;;;20.72;96.00;100726.19;5110424;27;20551;-68
2023/08/22 03:48:17;;;;;;;22.45;15.02;;;;;;;20.77;96.57;100742.19;5102078;27;20034;-69
2023/08/22 03:50:42;;;;;;;23.75;15.30;;;;;;;20.70;97.12;100750.53;5103601;27;20036;-71
2023/08/22 03:53:12;;;;;;;24.23;15.77;;;;;;;20.67;97.25;100748.44;5108889;27;20127;-69
2023/08/22 03:55:38;;;;;;;24.10;15.35;;;;;;;20.73;97.21;100757.19;5101167;27;20020;-70
2023/08/22 03:58:03;;;;;;;20.98;15.70;;;;;;;20.72;96.87;100748.38;5106906;27;20504;-70
2023/08/22 04:00:30;;;;;;;20.52;15.65;;;;;;;20.75;96.43;100742.44;5105235;27;20045;-69
2023/08/22 04:02:57;;;;;;;21.17;15.40;;;;;;;20.64;96.21;100724.94;5104336;27;20055;-68
2023/08/22 04:05:23;;;;;;;21.85;15.38;;;;;;;20.65;96.71;100721.16;5110613;27;20036;-71
2023/08/22 04:07:49;;;;;;;19.30;14.73;;;;;;;20.73;96.32;100735.78;5105207;27;20031;-68
2023/08/22 04:10:15;;;;;;;21.40;14.77;;;;;;;20.72;95.98;100734.22;5106353;27;20059;-71
2023/08/22 04:12:41;;;;;;;18.20;14.52;;;;;;;20.70;96.36;100731.81;5109140;27;20041;-68
2023/08/22 04:15:07;;;;;;;21.67;14.48;;;;;;;20.76;95.90;100743.28;5106762;27;20024;-72
2023/08/22 04:17:32;;;;;;;20.45;15.02;;;;;;;20.87;96.01;100758.13;5099847;28;20401;-68
2023/08/22 04:19:58;;;;;;;20.98;14.88;;;;;;;20.83;95.75;100751.75;5102942;28;20032;-72
2023/08/22 04:22:24;;;;;;;23.85;15.07;;;;;;;20.86;96.74;100753.06;5102278;28;20111;-68
2023/08/22 04:24:49;;;;;;;20.05;14.90;;;;;;;20.91;96.51;100753.00;5106804;28;20734;-68
2023/08/22 04:27:14;;;;;;;27.45;15.52;;;;;;;20.86;96.20;100743.16;5100372;28;20034;-72
2023/08/22 04:29:40;;;;;;;19.02;14.70;;;;;;;20.98;95.84;100756.91;5102087;28;20028;-71
2023/08/22 04:32:05;;;;;;;23.42;15.02;;;;;;;20.92;95.99;100742.00;5103157;28;20023;-70
2023/08/22 04:34:31;;;;;;;20.20;14.85;;;;;;;20.97;95.44;100750.00;5107912;28;20043;-71
2023/08/22 04:36:56;;;;;;;20.95;14.57;;;;;;;21.01;95.51;100751.00;5106579;28;20141;-71
2023/08/22 04:39:22;;;;;;;20.38;15.32;;;;;;;21.10;95.14;100759.19;5100805;28;20085;-69
2023/08/22 04:41:50;;;;;;;24.30;15.48;;;;;;;21.17;96.12;100766.88;5101155;28;20028;-69
2023/08/22 04:44:15;;;;;;;20.00;14.52;;;;;;;21.09;96.62;100744.19;5080264;28;20039;-72
2023/08/22 04:46:41;;;;;;;23.02;15.55;;;;;;;21.17;96.33;100753.50;5098768;28;20028;-70
2023/08/22 04:49:06;;;;;;;20.58;14.88;;;;;;;21.25;96.36;100764.34;5101069;28;20039;-70
2023/08/22 04:51:32;;;;;;;24.05;14.75;;;;;;;21.32;96.47;100774.72;5106246;28;20074;-72
2023/08/22 04:53:57;;;;;;;21.65;15.15;;;;;;;21.36;96.73;100775.75;5097708;28;20074;-70
2023/08/22 04:56:22;;;;;;;20.85;15.02;;;;;;;21.38;95.96;100770.91;5085365;28;20900;-70
2023/08/22 04:58:48;;;;;;;21.98;15.82;;;;;;;21.44;95.87;100785.84;5100623;28;20027;-71
2023/08/22 05:01:13;;;;;;;21.33;16.08;;;;;;;21.45;95.79;100775.91;5107862;28;20027;-71
2023/08/22 05:03:39;;;;;;;22.73;15.30;;;;;;;21.51;96.33;100784.69;5088133;28;20026;-68
2023/08/22 05:06:04;;;;;;;21.17;15.23;;;;;;;21.55;96.96;100780.34;5084868;27;20024;-70
2023/08/22 05:08:30;;;;;;;19.92;14.23;;;;;;;21.62;97.83;100780.78;5086312;28;20493;-71
2023/08/22 05:10:58;;;;;;;21.35;15.00;;;;;;;21.67;97.99;100784.19;5102598;27;20084;-69
2023/08/22 05:13:24;;;;;;;18.20;14.30;;;;;;;21.75;97.09;100785.41;5090521;27;20048;-70
2023/08/22 05:15:49;;;;;;;20.75;13.75;;;;;;;21.82;97.47;100787.75;5106944;27;20095;-71
2023/08/22 05:18:18;;;;;;;21.10;13.95;;;;;;;21.89;96.65;100793.53;5093971;28;20034;-68
2023/08/22 05:20:43;;;;;;;17.35;12.98;;;;;;;21.89;96.85;100780.13;5103458;27;20377;-73
2023/08/22 05:23:09;;;;;;;21.27;13.88;;;;;;;21.90;96.73;100773.66;5083139;28;20023;-73
2023/08/22 05:25:34;;;;;;;19.92;13.32;;;;;;;22.08;95.48;100794.31;5107606;27;20035;-74
2023/08/22 05:28:00;;;;;;;16.40;12.85;;;;;;;22.14;95.42;100786.97;5108369;27;20032;-74
2023/08/22 05:30:26;;;;;;;18.00;12.55;;;;;;;22.19;95.15;100781.53;5088939;27;20024;-74
2023/08/22 05:32:51;;;;;;;19.52;12.90;;;;;;;22.32;94.65;100788.06;5104996;27;20027;-73
2023/08/22 05:35:17;;;;;;;23.80;13.60;;;;;;;22.35;94.28;100784.00;5103846;27;20016;-73
2023/08/22 05:37:42;;;;;;;21.63;13.35;;;;;;;22.18;94.48;100744.28;5103633;27;20035;-73
2023/08/22 05:40:08;;;;;;;16.98;12.95;;;;;;;22.55;93.54;100799.72;5107036;27;20038;-74
2023/08/22 05:42:34;;;;;;;17.77;13.18;;;;;;;22.56;93.28;100787.91;5105024;27;20078;-73
2023/08/22 05:44:59;;;;;;;19.52;12.90;;;;;;;22.67;93.06;100794.69;5090820;28;20421;-73
2023/08/22 05:47:25;;;;;;;20.77;13.48;;;;;;;22.75;92.60;100784.34;5108448;27;20073;-72
2023/08/22 05:49:50;;;;;;;19.40;12.15;;;;;;;22.84;90.98;100777.19;5107761;27;20023;-72
2023/08/22 05:52:15;;;;;;;16.63;12.35;;;;;;;23.03;90.42;100793.25;5103509;27;20042;-72
2023/08/22 05:54:41;;;;;;;17.60;12.82;;;;;;;23.16;88.99;100797.81;5101500;27;20046;-72
2023/08/22 05:57:07;;;;;;;19.05;12.18;;;;;;;23.27;88.49;100799.22;5091030;27;20480;-73
2023/08/22 05:59:32;;;;;;;19.13;12.13;;;;;;;23.36;88.08;100789.31;5107135;27;20086;-72
2023/08/22 06:01:58;;;;;;;16.10;11.80;;;;;;;23.54;85.96;100792.19;5101911;27;20028;-72
2023/08/22 06:04:25;;;;;;;19.83;12.02;;;;;;;23.63;85.44;100795.72;5105822;27;20460;-72
2023/08/22 06:06:50;;;;;;;15.93;11.52;;;;;;;23.79;84.21;100806.97;5105924;27;20028;-73
2023/08/22 06:09:16;;;;;;;15.30;11.80;;;;;;;23.89;84.12;100806.75;5105370;27;20513;-73
2023/08/22 06:11:42;;;;;;;14.45;11.25;;;;;;;23.99;83.83;100797.63;5090599;27;20020;-73
2023/08/22 06:14:07;;;;;;;16.98;11.07;;;;;;;24.13;83.24;100803.75;5090249;28;20043;-73
2023/08/22 06:16:33;;;;;;;19.70;11.43;;;;;;;24.30;82.23;100803.09;5106973;27;20680;-72
2023/08/22 06:18:59;;;;;;;17.73;12.02;;;;;;;24.39;82.43;100798.53;5091086;27;20066;-73
2023/08/22 06:21:25;;;;;;;15.50;10.68;;;;;;;24.48;82.07;100803.22;5102676;27;20047;-73
2023/08/22 06:23:50;;;;;;;16.50;11.02;;;;;;;24.54;82.28;100804.66;5097318;27;20032;-73
2023/08/22 06:26:16;;;;;;;19.08;11.95;;;;;;;24.64;80.90;100799.03;5104284;27;20035;-72
2023/08/22 06:28:41;;;;;;;16.52;11.82;;;;;;;24.76;81.67;100803.84;5108088;27;20515;-73
2023/08/22 06:31:07;;;;;;;18.73;11.02;;;;;;;24.79;79.95;100782.44;5104766;27;20027;-73
2023/08/22 06:33:32;;;;;;;15.00;10.75;;;;;;;24.94;77.80;100793.91;5104922;27;20032;-73
2023/08/22 06:35:57;;;;;;;13.15;10.32;;;;;;;25.09;77.83;100804.25;5105659;27;20043;-73
2023/08/22 06:38:24;;;;;;;15.65;10.43;;;;;;;25.15;76.84;100796.84;5105288;27;20869;-73
2023/08/22 06:40:49;;;;;;;14.35;10.32;;;;;;;25.12;77.17;100792.88;5105878;27;20023;-70
2023/08/22 06:43:15;;;;;;;15.73;10.18;;;;;;;25.17;76.77;100781.97;5106067;27;20046;-69
2023/08/22 06:45:41;;;;;;;14.43;10.07;;;;;;;25.40;75.70;100803.41;5108473;27;20157;-70
2023/08/22 06:48:06;;;;;;;14.68;10.10;;;;;;;25.50;75.86;100810.38;5090985;27;20139;-71
2023/08/22 06:50:32;;;;;;;12.60;9.93;;;;;;;25.59;73.86;100801.19;5084573;27;20027;-71
2023/08/22 06:52:57;;;;;;;14.57;9.85;;;;;;;25.55;75.17;100778.69;5103483;27;20023;-70
2023/08/22 06:55:23;;;;;;;16.60;9.60;;;;;;;25.75;72.81;100806.94;5107072;27;20027;-70
2023/08/22 06:57:49;;;;;;;17.88;10.15;;;;;;;25.68;72.72;100793.13;5104265;27;20019;-70
2023/08/22 07:00:16;;;;;;;13.85;9.60;;;;;;;25.83;73.84;100811.50;5106745;27;20027;-71
2023/08/22 07:02:43;;;;;;;13.05;9.63;;;;;;;25.88;73.45;100805.19;5102244;27;20020;-69
2023/08/22 07:05:10;;;;;;;12.88;9.23;;;;;;;25.95;71.93;100805.50;5092610;27;20042;-70
2023/08/22 07:07:37;;;;;;;10.50;9.40;;;;;;;25.97;72.22;100806.00;5102882;27;20115;-70
2023/08/22 07:10:05;;;;;;;13.55;9.20;;;;;;;26.02;70.47;100810.44;5096449;27;20034;-70
2023/08/22 07:12:30;;;;;;;11.63;8.60;;;;;;;26.03;70.04;100806.63;5102647;27;20020;-69
2023/08/22 07:14:56;;;;;;;13.52;9.40;;;;;;;26.12;70.12;100809.31;5104858;27;20420;-70
2023/08/22 07:17:21;;;;;;;10.68;9.57;;;;;;;26.29;70.88;100803.88;5100588;27;20016;-70
2023/08/22 07:19:47;;;;;;;12.40;9.30;;;;;;;26.45;71.58;100801.47;5105528;27;20114;-70
2023/08/22 07:22:12;;;;;;;11.38;9.35;;;;;;;26.59;70.50;100801.28;5101817;27;20146;-73
2023/08/22 07:24:37;;;;;;;12.60;9.20;;;;;;;26.68;68.78;100812.88;5085694;27;20031;-73
2023/08/22 07:27:03;;;;;;;16.05;9.90;;;;;;;26.64;68.86;100799.19;5101114;27;20016;-71
2023/08/22 07:29:28;;;;;;;17.13;9.95;;;;;;;26.81;71.43;100813.75;5087239;28;20028;-72
2023/08/22 07:31:58;;;;;;;10.27;9.23;;;;;;;26.86;68.98;100810.88;5100534;27;20023;-73
2023/08/22 07:34:24;;;;;;;12.05;8.90;;;;;;;26.90;67.32;100814.53;5112833;27;20721;-70
2023/08/22 07:36:49;;;;;;;14.02;9.48;;;;;;;27.02;66.57;100814.63;5085913;27;20028;-71
2023/08/22 07:39:15;;;;;;;14.60;8.95;;;;;;;27.05;68.31;100810.47;5105133;27;20451;-71
2023/08/22 07:41:41;;;;;;;14.15;9.27;;;;;;;27.20;67.38;100817.25;5102870;27;20660;-69
2023/08/22 07:44:06;;;;;;;12.07;9.27;;;;;;;27.24;67.21;100794.63;5102921;27;20389;-69
2023/08/22 07:46:32;;;;;;;12.13;8.77;;;;;;;27.31;67.38;100800.31;5089510;28;20024;-71
2023/08/22 07:48:58;;;;;;;10.98;8.90;;;;;;;27.40;66.90;100805.69;5103020;27;20553;-71
2023/08/22 07:51:23;;;;;;;12.68;9.02;;;;;;;27.45;65.61;100794.66;5098639;28;20075;-71
2023/08/22 07:53:49;;;;;;;12.40;8.98;;;;;;;27.52;64.87;100796.84;5107893;27;20051;-71
2023/08/22 07:56:14;;;;;;;12.10;8.73;;;;;;;27.54;65.33;100805.44;5101767;27;20464;-70
2023/08/22 07:58:40;;;;;;;15.20;8.93;;;;;;;27.69;65.74;100809.44;5103068;27;20034;-70
2023/08/22 08:01:05;;;;;;;12.90;9.00;;;;;;;27.75;65.43;100805.41;5103258;27;20024;-70
2023/08/22 08:03:31;;;;;;;11.68;9.07;;;;;;;27.86;64.87;100813.94;5106156;27;20405;-70
2023/08/22 08:05:58;;;;;;;12.20;8.50;;;;;;;27.89;65.30;100814.06;5081641;28;20462;-70
2023/08/22 08:08:23;;;;;;;14.38;8.43;;;;;;;27.99;65.38;100808.25;5107326;27;20063;-71
2023/08/22 08:10:48;;;;;;;11.32;8.68;;;;;;;28.05;65.63;100803.41;5101717;27;20044;-71
2023/08/22 08:13:14;;;;;;;10.05;8.57;;;;;;;28.02;65.41;100795.97;5105187;27;20016;-71
2023/08/22 08:15:41;;;;;;;9.60;8.38;;;;;;;28.16;64.95;100818.13;5086236;28;20118;-71
2023/08/22 08:18:06;;;;;;;10.65;7.93;;;;;;;28.04;63.29;100777.47;5100036;28;20093;-71
2023/08/22 08:20:32;;;;;;;8.95;8.02;;;;;;;28.24;63.60;100796.72;5084250;28;20020;-70
2023/08/22 08:22:57;;;;;;;13.85;8.80;;;;;;;28.35;63.24;100805.97;5098285;27;20052;-71
2023/08/22 08:25:23;;;;;;;14.82;8.43;;;;;;;28.36;63.20;100800.22;5084415;28;20031;-71
2023/08/22 08:27:48;;;;;;;9.88;7.78;;;;;;;28.48;62.26;100809.56;5101465;28;20473;-75
2023/08/22 08:30:14;;;;;;;9.32;8.40;;;;;;;28.48;62.83;100802.22;5099061;28;20036;-74
2023/08/22 08:32:39;;;;;;;10.02;7.97;;;;;;;28.61;62.55;100811.94;5090382;28;20465;-73
2023/08/22 08:35:06;;;;;;;10.93;8.55;;;;;;;28.80;61.92;100810.59;5105251;28;20032;-74
2023/08/22 08:37:32;;;;;;;9.45;8.07;;;;;;;28.90;61.05;100809.34;5103169;28;20028;-73
2023/08/22 08:39:57;;;;;;;13.20;8.60;;;;;;;28.86;61.83;100798.41;5090570;27;20034;-74
2023/08/22 08:42:24;;;;;;;9.38;8.05;;;;;;;28.94;60.49;100799.41;5110128;27;20019;-75
2023/08/22 08:44:49;;;;;;;11.02;7.88;;;;;;;29.05;61.00;100797.81;5095594;27;20091;-74
2023/08/22 08:47:15;;;;;;;12.43;8.35;;;;;;;29.14;60.41;100798.53;5107914;27;20027;-74
2023/08/22 08:49:41;;;;;;;11.60;8.15;;;;;;;29.21;59.79;100804.16;5090921;27;20724;-73
2023/08/22 08:52:08;;;;;;;9.93;7.63;;;;;;;29.20;59.63;100807.22;5108601;27;20039;-73
2023/08/22 08:54:35;;;;;;;9.48;8.02;;;;;;;29.20;61.38;100799.06;5106301;27;20050;-73
2023/08/22 08:57:01;;;;;;;11.05;7.20;;;;;;;29.27;60.86;100799.28;5108639;27;20027;-73
2023/08/22 08:59:27;;;;;;;9.48;7.80;;;;;;;29.38;60.45;100808.56;5106853;27;20034;-72
2023/08/22 09:01:53;;;;;;;10.68;8.27;;;;;;;29.50;59.61;100809.63;5088473;27;20169;-73
2023/08/22 09:04:19;;;;;;;9.38;7.88;;;;;;;29.63;58.20;100806.53;5102111;27;20066;-73
2023/08/22 09:06:46;;;;;;;10.77;7.80;;;;;;;29.71;58.24;100804.84;5106452;27;20031;-72
2023/08/22 09:09:12;;;;;;;8.45;7.53;;;;;;;29.73;58.73;100801.78;5111376;27;20822;-74
2023/08/22 09:11:49;;;;;;;12.13;7.55;;;;;;;29.86;58.00;100801.41;5105691;27;20032;-74
2023/08/22 09:14:19;;;;;;;11.65;7.72;;;;;;;29.87;57.59;100783.97;5090740;27;20114;-69
2023/08/22 09:16:45;;;;;;;8.73;7.30;;;;;;;30.03;57.19;100794.09;5106709;27;20028;-69
2023/08/22 09:19:11;;;;;;;8.25;7.32;;;;;;;30.12;55.00;100797.41;5108747;27;20107;-69
2023/08/22 09:21:37;;;;;;;9.38;7.63;;;;;;;30.20;54.93;100785.63;5090817;27;20043;-67
2023/08/22 09:24:10;;;;;;;11.32;7.53;;;;;;;30.16;54.03;100771.16;5107896;27;20069;-69
2023/08/22 09:26:36;;;;;;;9.57;8.07;;;;;;;30.30;54.93;100798.72;5105846;27;20919;-67
2023/08/22 09:29:06;;;;;;;15.75;8.02;;;;;;;30.38;55.26;100793.47;5104973;27;20036;-68
2023/08/22 09:31:34;;;;;;;11.07;8.02;;;;;;;30.48;55.41;100798.38;5106608;27;20035;-67
2023/08/22 09:33:59;;;;;;;12.77;8.80;;;;;;;30.53;55.65;100788.03;5108939;27;20024;-68
2023/08/22 09:36:24;;;;;;;13.30;7.80;;;;;;;30.54;55.46;100788.81;5088520;28;20051;-69
2023/08/22 09:38:58;;;;;;;11.85;8.32;;;;;;;30.65;54.78;100787.16;5093587;27;20590;-66
2023/08/22 09:41:25;;;;;;;9.18;8.23;;;;;;;30.69;54.83;100777.13;5106478;27;20024;-68
2023/08/22 09:43:58;;;;;;;10.65;8.50;;;;;;;30.81;55.11;100783.63;5105494;27;20058;-67
2023/08/22 09:46:24;;;;;;;8.98;8.00;;;;;;;30.87;55.02;100783.03;5106141;27;20477;-67
2023/08/22 09:48:50;;;;;;;9.88;8.30;;;;;;;30.91;54.95;100774.94;5106473;27;20032;-68
2023/08/22 09:51:20;;;;;;;11.68;8.32;;;;;;;31.03;53.94;100782.19;5099374;28;20138;-68
2023/08/22 09:53:59;;;;;;;13.20;8.18;;;;;;;31.01;53.79;100777.13;5114366;27;20028;-68
2023/08/22 09:56:25;;;;;;;11.18;8.00;;;;;;;31.15;52.15;100779.34;5106370;27;20109;-67
2023/08/22 09:58:52;;;;;;;8.80;8.00;;;;;;;31.11;51.59;100768.41;5090838;27;20114;-67
2023/08/22 10:01:19;;;;;;;10.50;7.80;;;;;;;31.25;51.48;100778.03;5108001;27;20042;-67
2023/08/22 10:03:46;;;;;;;9.98;8.23;;;;;;;31.31;51.73;100774.66;5109585;27;20019;-67
2023/08/22 10:06:13;;;;;;;8.57;7.72;;;;;;;31.40;51.46;100776.44;5108141;27;20388;-68
2023/08/22 10:08:41;;;;;;;9.32;7.15;;;;;;;31.45;49.94;100768.75;5105356;27;20480;-67
2023/08/22 10:11:09;;;;;;;11.02;7.22;;;;;;;31.50;49.24;100765.75;5103749;27;20031;-67
2023/08/22 10:13:37;;;;;;;12.50;8.38;;;;;;;31.51;49.18;100755.63;5109753;27;20038;-68
2023/08/22 10:16:03;;;;;;;13.70;8.00;;;;;;;31.57;49.21;100755.00;5108132;27;20500;-67
2023/08/22 10:18:29;;;;;;;9.32;8.32;;;;;;;31.66;48.82;100757.50;5106560;27;20035;-67
2023/08/22 10:20:55;;;;;;;9.07;7.47;;;;;;;31.78;48.20;100760.06;5108584;27;20070;-67
2023/08/22 10:23:53;;;;;;;13.73;8.13;;;;;;;31.86;47.90;100760.97;5108724;27;20055;-68
2023/08/22 10:26:25;;;;;;;10.18;7.88;;;;;;;31.94;48.11;100759.97;5101036;27;20038;-67
2023/08/22 10:29:12;;;;;;;9.75;7.88;;;;;;;32.04;48.75;100760.53;5107842;27;20036;-68
2023/08/22 10:31:59;;;;;;;14.00;7.40;;;;;;;32.09;47.61;100754.81;5087503;27;20138;-67
2023/08/22 10:34:25;;;;;;;9.38;7.80;;;;;;;32.09;47.84;100747.44;5094036;27;20020;-68
2023/08/22 10:36:59;;;;;;;14.88;9.10;;;;;;;32.19;48.11;100746.81;5106130;27;20024;-66
2023/08/22 10:39:40;;;;;;;9.00;8.00;;;;;;;32.28;48.19;100752.03;5103915;27;20031;-66
2023/08/22 10:42:16;;;;;;;13.48;7.90;;;;;;;32.31;46.44;100748.56;5103670;27;20500;-68
2023/08/22 10:44:42;;;;;;;8.60;7.72;;;;;;;32.33;47.15;100738.09;5093851;27;20027;-66
2023/08/22 10:47:17;;;;;;;11.02;7.70;;;;;;;32.36;46.38;100736.56;5107654;27;20696;-68
2023/08/22 10:49:43;;;;;;;8.65;7.35;;;;;;;32.47;45.75;100737.53;5089494;27;20027;-67
2023/08/22 10:52:10;;;;;;;8.80;7.00;;;;;;;32.55;45.46;100741.19;5106673;27;20084;-67
2023/08/22 10:54:57;;;;;;;8.85;7.20;;;;;;;32.64;44.71;100741.72;5111084;27;20031;-67
2023/08/22 10:57:23;;;;;;;9.75;7.10;;;;;;;32.65;44.75;100737.03;5100815;27;20032;-67
2023/08/22 11:00:13;;;;;;;10.82;7.43;;;;;;;32.69;44.13;100729.72;5105680;27;20473;-67
2023/08/22 11:02:43;;;;;;;7.82;7.03;;;;;;;32.85;44.44;100735.75;5104883;27;20031;-68
2023/08/22 11:05:11;;;;;;;12.45;7.13;;;;;;;32.89;43.86;100735.81;5086727;27;20023;-68
2023/08/22 11:07:41;;;;;;;8.57;7.00;;;;;;;32.93;43.76;100733.94;5108089;27;20501;-68
2023/08/22 11:10:18;;;;;;;11.10;7.30;;;;;;;32.96;42.55;100736.69;5104769;27;20027;-67
2023/08/22 11:12:45;;;;;;;7.95;6.75;;;;;;;32.98;42.94;100728.94;5103648;27;20024;-67